JAL605 RJTT-RJFU
Flight info
| Callsign | JAL605 |
|---|---|
| Flight time | N/A |
| Altitude | 38000 |
| Route | TIARA GUSRO Y20 KAMMY Y204 OHGIE |
| Aircraft | B738/M-SDE2E3FGHIRWXY/LB1 |
Departure
| Time | 2026-05-01 07:58 |
|---|---|
| Airport | Tokyo Haneda International Airport (RJTT) |
Arrival
| Time | N/A |
|---|---|
| Airport | Nagasaki Airport (RJFU) |
| Time | Latitude | Longitude | Altitude | Speed | Heading |
|---|---|---|---|---|---|
| 2026-05-01 07:36 | 35.54530 | 139.78438 | 28 ft | 0 kts | 75° |
| 2026-05-01 07:48 | 35.54530 | 139.78436 | 23 ft | 2 kts | 75° |
| 2026-05-01 07:48 | 35.54522 | 139.78407 | 27 ft | 4 kts | 64° |
| 2026-05-01 07:48 | 35.54507 | 139.78379 | 29 ft | 4 kts | 42° |
| 2026-05-01 07:49 | 35.54486 | 139.78365 | 25 ft | 4 kts | 355° |
| 2026-05-01 07:49 | 35.54475 | 139.78367 | 28 ft | 0 kts | 330° |
| 2026-05-01 07:52 | 35.54476 | 139.78367 | 28 ft | 0 kts | 330° |
| 2026-05-01 07:52 | 35.54480 | 139.78364 | 29 ft | 1 kts | 329° |
| 2026-05-01 07:52 | 35.54493 | 139.78355 | 25 ft | 6 kts | 331° |
| 2026-05-01 07:53 | 35.54598 | 139.78282 | 24 ft | 9 kts | 330° |
| 2026-05-01 07:53 | 35.54663 | 139.78235 | 23 ft | 12 kts | 329° |
| 2026-05-01 07:53 | 35.54745 | 139.78177 | 23 ft | 15 kts | 331° |
| 2026-05-01 07:53 | 35.54851 | 139.78104 | 26 ft | 20 kts | 330° |
| 2026-05-01 07:54 | 35.55101 | 139.77926 | 25 ft | 20 kts | 329° |
| 2026-05-01 07:55 | 35.55448 | 139.77677 | 24 ft | 18 kts | 329° |
| 2026-05-01 07:55 | 35.55630 | 139.77529 | 23 ft | 8 kts | 284° |
| 2026-05-01 07:56 | 35.55548 | 139.77329 | 23 ft | 10 kts | 238° |
| 2026-05-01 07:56 | 35.55445 | 139.77304 | 27 ft | 14 kts | 149° |
| 2026-05-01 07:57 | 35.55129 | 139.77517 | 28 ft | 89 kts | 155° |
| 2026-05-01 07:57 | 35.53442 | 139.78697 | 564 ft | 168 kts | 157° |
| 2026-05-01 07:58 | 35.51119 | 139.80320 | 1436 ft | 213 kts | 156° |
| 2026-05-01 07:58 | 35.48264 | 139.81650 | 2465 ft | 230 kts | 192° |
| 2026-05-01 07:59 | 35.45775 | 139.79451 | 4435 ft | 232 kts | 240° |
| 2026-05-01 07:59 | 35.45074 | 139.75504 | 6200 ft | 256 kts | 274° |
| 2026-05-01 08:00 | 35.51423 | 139.70567 | 9625 ft | 324 kts | 345° |
| 2026-05-01 08:01 | 35.57548 | 139.67259 | 10789 ft | 340 kts | 294° |
| 2026-05-01 08:01 | 35.58676 | 139.64662 | 11190 ft | 348 kts | 288° |
| 2026-05-01 08:01 | 35.59756 | 139.61970 | 11894 ft | 353 kts | 288° |
| 2026-05-01 08:02 | 35.61954 | 139.56553 | 13518 ft | 357 kts | 287° |
| 2026-05-01 08:02 | 35.62701 | 139.54739 | 13923 ft | 361 kts | 287° |
| 2026-05-01 08:03 | 35.64276 | 139.50923 | 14773 ft | 370 kts | 287° |
| 2026-05-01 08:03 | 35.65375 | 139.48103 | 15370 ft | 368 kts | 280° |
| 2026-05-01 08:03 | 35.65869 | 139.42096 | 16783 ft | 351 kts | 261° |
| 2026-05-01 08:04 | 35.65913 | 139.36630 | 17925 ft | 357 kts | 260° |
| 2026-05-01 08:04 | 35.65986 | 139.30511 | 19038 ft | 363 kts | 260° |
| 2026-05-01 08:05 | 35.66079 | 139.24228 | 19973 ft | 372 kts | 260° |
| 2026-05-01 08:05 | 35.66130 | 139.21035 | 20508 ft | 375 kts | 260° |
| 2026-05-01 08:05 | 35.66182 | 139.17822 | 21088 ft | 376 kts | 259° |
| 2026-05-01 08:06 | 35.66273 | 139.11312 | 22115 ft | 384 kts | 259° |
| 2026-05-01 08:06 | 35.66363 | 139.04710 | 23153 ft | 391 kts | 259° |
| 2026-05-01 08:07 | 35.66997 | 138.97894 | 24010 ft | 422 kts | 274° |
| 2026-05-01 08:07 | 35.67069 | 138.91210 | 24847 ft | 381 kts | 245° |
| 2026-05-01 08:08 | 35.66432 | 138.88022 | 25200 ft | 387 kts | 248° |
| 2026-05-01 08:08 | 35.65532 | 138.81355 | 25915 ft | 400 kts | 252° |
| 2026-05-01 08:09 | 35.64842 | 138.74525 | 26608 ft | 407 kts | 253° |
| 2026-05-01 08:09 | 35.64501 | 138.71046 | 26937 ft | 408 kts | 253° |
| 2026-05-01 08:09 | 35.64273 | 138.68748 | 27135 ft | 410 kts | 253° |
| 2026-05-01 08:10 | 35.63697 | 138.60507 | 27839 ft | 421 kts | 257° |
| 2026-05-01 08:10 | 35.62946 | 138.54663 | 28326 ft | 414 kts | 250° |
| 2026-05-01 08:11 | 35.61682 | 138.47721 | 28961 ft | 417 kts | 249° |
| 2026-05-01 08:11 | 35.60420 | 138.40754 | 29731 ft | 416 kts | 250° |
| 2026-05-01 08:12 | 35.59154 | 138.33808 | 30012 ft | 420 kts | 251° |
| 2026-05-01 08:12 | 35.58660 | 138.30573 | 30308 ft | 420 kts | 251° |
| 2026-05-01 08:12 | 35.57459 | 138.23547 | 30816 ft | 419 kts | 250° |
| 2026-05-01 08:13 | 35.56832 | 138.20089 | 31103 ft | 421 kts | 251° |
| 2026-05-01 08:13 | 35.56188 | 138.16557 | 31334 ft | 424 kts | 251° |
| 2026-05-01 08:13 | 35.54921 | 138.09511 | 32020 ft | 423 kts | 251° |
| 2026-05-01 08:14 | 35.54286 | 138.05966 | 32173 ft | 427 kts | 251° |
| 2026-05-01 08:14 | 35.53645 | 138.02387 | 32379 ft | 429 kts | 251° |
| 2026-05-01 08:14 | 35.53007 | 137.98809 | 32780 ft | 427 kts | 252° |
| 2026-05-01 08:14 | 35.52380 | 137.95286 | 33102 ft | 426 kts | 252° |
| 2026-05-01 08:15 | 35.51745 | 137.91729 | 33383 ft | 426 kts | 252° |
| 2026-05-01 08:15 | 35.50468 | 137.84585 | 33846 ft | 428 kts | 252° |
| 2026-05-01 08:15 | 35.49830 | 137.81022 | 34162 ft | 425 kts | 252° |
| 2026-05-01 08:16 | 35.49193 | 137.77483 | 34522 ft | 422 kts | 253° |
| 2026-05-01 08:16 | 35.48562 | 137.73979 | 34849 ft | 420 kts | 253° |
| 2026-05-01 08:16 | 35.47941 | 137.70528 | 35100 ft | 419 kts | 253° |
| 2026-05-01 08:16 | 35.47306 | 137.67018 | 35300 ft | 420 kts | 253° |
| 2026-05-01 08:17 | 35.46672 | 137.63514 | 35527 ft | 419 kts | 252° |
| 2026-05-01 08:17 | 35.46039 | 137.60025 | 35789 ft | 418 kts | 253° |
| 2026-05-01 08:17 | 35.45414 | 137.56581 | 35977 ft | 418 kts | 253° |
| 2026-05-01 08:17 | 35.44779 | 137.53087 | 36240 ft | 417 kts | 253° |
| 2026-05-01 08:18 | 35.44146 | 137.49623 | 36506 ft | 415 kts | 253° |
| 2026-05-01 08:18 | 35.42889 | 137.42749 | 36927 ft | 414 kts | 253° |
| 2026-05-01 08:19 | 35.41627 | 137.35860 | 37318 ft | 414 kts | 254° |
| 2026-05-01 08:19 | 35.40991 | 137.32408 | 37469 ft | 415 kts | 253° |
| 2026-05-01 08:19 | 35.40351 | 137.28937 | 37565 ft | 417 kts | 253° |
| 2026-05-01 08:20 | 35.39073 | 137.22027 | 37568 ft | 416 kts | 253° |
| 2026-05-01 08:20 | 35.37803 | 137.15170 | 37571 ft | 413 kts | 253° |
| 2026-05-01 08:21 | 35.36530 | 137.08320 | 37571 ft | 411 kts | 253° |
| 2026-05-01 08:21 | 35.35258 | 137.01499 | 37571 ft | 409 kts | 253° |
| 2026-05-01 08:22 | 35.33990 | 136.94729 | 37560 ft | 411 kts | 254° |
| 2026-05-01 08:22 | 35.32698 | 136.87861 | 37569 ft | 417 kts | 254° |
| 2026-05-01 08:23 | 35.31384 | 136.80891 | 37566 ft | 421 kts | 254° |
| 2026-05-01 08:23 | 35.30067 | 136.73925 | 37550 ft | 424 kts | 255° |
| 2026-05-01 08:24 | 35.28725 | 136.66845 | 37569 ft | 427 kts | 255° |
| 2026-05-01 08:24 | 35.27382 | 136.59790 | 37578 ft | 429 kts | 254° |
| 2026-05-01 08:25 | 35.26018 | 136.52660 | 37571 ft | 429 kts | 255° |
| 2026-05-01 08:25 | 35.24657 | 136.45548 | 37579 ft | 429 kts | 255° |
| 2026-05-01 08:26 | 35.23300 | 136.38486 | 37583 ft | 428 kts | 255° |
| 2026-05-01 08:26 | 35.21941 | 136.31442 | 37595 ft | 420 kts | 256° |
| 2026-05-01 08:27 | 35.20607 | 136.24547 | 37602 ft | 415 kts | 256° |
| 2026-05-01 08:27 | 35.19273 | 136.17676 | 37598 ft | 415 kts | 255° |
| 2026-05-01 08:28 | 35.17941 | 136.10845 | 37605 ft | 415 kts | 256° |
| 2026-05-01 08:28 | 35.16779 | 136.04899 | 37609 ft | 415 kts | 256° |
| 2026-05-01 08:29 | 35.15815 | 135.99979 | 37607 ft | 416 kts | 256° |
| 2026-05-01 08:29 | 35.14463 | 135.93096 | 37602 ft | 417 kts | 256° |
| 2026-05-01 08:30 | 35.13108 | 135.86222 | 37617 ft | 419 kts | 256° |
| 2026-05-01 08:30 | 35.11732 | 135.79264 | 37617 ft | 421 kts | 256° |